Time;durP1;ratioP1;P1;durP2;ratioP2;P2;SDS_P1;SDS_P2;PMS_P1;PMS_P2;Temp;Humidity;BMP_temperature;BMP_pressure;BME280_temperature;BME280_humidity;BME280_pressure;Samples;Min_cycle;Max_cycle;Signal;HPM_P1;HPM_P2
2022/09/12 00:01:40;;;;;;;20.73;13.88;;;;;;;20.05;100.00;99654.56;5068444;28;20102;-29
2022/09/12 00:04:06;;;;;;;21.30;14.02;;;;;;;19.99;100.00;99653.03;5068578;28;20037;-33
2022/09/12 00:06:34;;;;;;;23.85;14.48;;;;;;;20.13;99.74;99659.31;5068318;28;20051;-31
2022/09/12 00:09:03;;;;;;;28.10;17.13;;;;;;;20.16;100.00;99671.47;5050275;28;20044;-29
2022/09/12 00:11:29;;;;;;;29.15;17.30;;;;;;;20.04;100.00;99667.31;5050462;28;20036;-31
2022/09/12 00:14:00;;;;;;;21.02;14.77;;;;;;;20.30;99.64;99675.03;5068289;28;20024;-29
2022/09/12 00:16:28;;;;;;;19.20;13.65;;;;;;;20.20;99.16;99669.78;5068244;28;20137;-32
2022/09/12 00:18:54;;;;;;;19.50;13.00;;;;;;;19.95;100.00;99647.38;5066712;28;20094;-33
2022/09/12 00:21:21;;;;;;;15.27;12.30;;;;;;;19.81;100.00;99663.53;5067946;28;20032;-30
2022/09/12 00:23:47;;;;;;;16.17;11.30;;;;;;;19.64;100.00;99652.34;5049079;28;20028;-30
2022/09/12 00:26:13;;;;;;;16.83;11.95;;;;;;;20.01;100.00;99669.78;5049748;28;20036;-30
2022/09/12 00:28:40;;;;;;;17.48;12.38;;;;;;;20.14;100.00;99649.28;5066318;28;20450;-33
2022/09/12 00:31:08;;;;;;;15.97;11.47;;;;;;;20.09;100.00;99641.25;5049973;28;20028;-29
2022/09/12 00:33:34;;;;;;;13.70;11.20;;;;;;;19.97;100.00;99645.19;5049804;28;20025;-33
2022/09/12 00:36:05;;;;;;;14.77;10.75;;;;;;;20.02;100.00;99664.06;5049667;28;20028;-29
2022/09/12 00:38:30;;;;;;;15.07;10.82;;;;;;;20.14;100.00;99650.09;5049530;28;20117;-31
2022/09/12 00:40:56;;;;;;;13.55;9.63;;;;;;;19.97;100.00;99650.59;5049858;28;20799;-29
2022/09/12 00:43:43;;;;;;;15.35;10.65;;;;;;;19.80;100.00;99656.50;5067672;28;20056;-32
2022/09/12 00:46:30;;;;;;;16.42;10.13;;;;;;;19.81;100.00;99662.72;5049602;28;20062;-31
2022/09/12 00:49:11;;;;;;;12.85;9.77;;;;;;;20.05;100.00;99658.06;5049744;28;20050;-29
2022/09/12 00:51:38;;;;;;;11.65;9.38;;;;;;;19.74;100.00;99656.88;5049807;28;20530;-29
2022/09/12 00:54:11;;;;;;;13.68;9.95;;;;;;;19.83;100.00;99666.75;5049584;28;20028;-29
2022/09/12 00:56:40;;;;;;;12.77;9.50;;;;;;;19.52;100.00;99636.53;5049227;28;20043;-29
2022/09/12 00:59:17;;;;;;;13.05;8.73;;;;;;;19.55;100.00;99660.28;5049399;28;20642;-28
2022/09/12 01:01:45;;;;;;;12.55;9.50;;;;;;;19.46;100.00;99629.56;5049388;28;20048;-29
2022/09/12 01:04:12;;;;;;;15.27;9.93;;;;;;;19.58;100.00;99651.59;5067321;28;20036;-29
2022/09/12 01:06:42;;;;;;;13.07;9.63;;;;;;;19.54;100.00;99647.88;5048833;28;20044;-29
2022/09/12 01:09:10;;;;;;;15.88;10.40;;;;;;;19.31;100.00;99624.31;5067192;28;20052;-32
2022/09/12 01:11:39;;;;;;;19.40;10.45;;;;;;;19.41;100.00;99648.53;5067166;28;20052;-29
2022/09/12 01:14:05;;;;;;;17.42;10.93;;;;;;;19.35;100.00;99645.13;5049292;28;20035;-29
2022/09/12 01:16:34;;;;;;;16.20;10.18;;;;;;;19.06;100.00;99621.63;5048844;28;20491;-32
2022/09/12 01:19:10;;;;;;;13.48;10.07;;;;;;;19.36;100.00;99643.22;5048980;28;20037;-32
2022/09/12 01:21:56;;;;;;;12.30;9.95;;;;;;;19.25;100.00;99635.22;5049094;28;20028;-31
2022/09/12 01:24:58;;;;;;;13.77;9.75;;;;;;;19.18;100.00;99634.72;5065560;28;20488;-31
2022/09/12 01:28:01;;;;;;;12.82;9.00;;;;;;;18.98;100.00;99629.53;5066813;28;20503;-30
2022/09/12 01:30:42;;;;;;;11.77;8.32;;;;;;;18.86;100.00;99638.03;5066983;28;20055;-29
2022/09/12 01:33:41;;;;;;;10.77;7.53;;;;;;;18.70;100.00;99633.84;5067259;28;20136;-29
2022/09/12 01:36:25;;;;;;;11.75;8.32;;;;;;;18.41;100.00;99623.81;5066195;28;20040;-31
2022/09/12 01:39:02;;;;;;;11.48;8.40;;;;;;;18.16;100.00;99624.75;5065640;28;20123;-30
2022/09/12 01:41:54;;;;;;;12.13;9.20;;;;;;;18.09;100.00;99635.06;5066781;28;20020;-29
2022/09/12 01:44:26;;;;;;;10.75;8.45;;;;;;;18.19;100.00;99637.72;5048481;28;20032;-31
2022/09/12 01:47:35;;;;;;;11.88;8.05;;;;;;;18.35;100.00;99620.31;5066600;28;20391;-28
2022/09/12 01:50:12;;;;;;;11.10;8.07;;;;;;;18.37;100.00;99620.84;5028462;28;20033;-32
2022/09/12 01:52:47;;;;;;;9.48;7.72;;;;;;;18.26;100.00;99603.09;5048263;28;20039;-31
2022/09/12 01:55:19;;;;;;;11.02;7.32;;;;;;;18.25;100.00;99626.59;5048715;28;20052;-29
2022/09/12 01:57:58;;;;;;;9.68;8.35;;;;;;;17.93;100.00;99616.28;5065469;28;20115;-32
2022/09/12 02:00:24;;;;;;;11.00;8.25;;;;;;;17.87;100.00;99615.47;5048629;28;20039;-31
2022/09/12 02:03:11;;;;;;;12.35;8.70;;;;;;;18.18;100.00;99623.38;5048329;28;20037;-32
2022/09/12 02:05:43;;;;;;;10.15;8.18;;;;;;;18.03;100.00;99623.50;5061722;28;20058;-31
2022/09/12 02:08:16;;;;;;;11.38;8.63;;;;;;;18.05;100.00;99622.13;5045457;28;20035;-29
2022/09/12 02:10:52;;;;;;;10.82;8.00;;;;;;;18.14;100.00;99621.53;5061907;28;20028;-30
2022/09/12 02:13:26;;;;;;;10.10;8.38;;;;;;;18.14;100.00;99606.16;5062128;28;20035;-29
2022/09/12 02:15:59;;;;;;;9.98;8.27;;;;;;;18.15;100.00;99617.78;5045321;28;20492;-34
2022/09/12 02:18:29;;;;;;;10.38;7.93;;;;;;;18.07;100.00;99611.88;5046502;28;20032;-31
2022/09/12 02:20:55;;;;;;;9.55;8.48;;;;;;;18.07;100.00;99600.28;5046480;28;20120;-31
2022/09/12 02:23:26;;;;;;;10.55;8.25;;;;;;;18.05;100.00;99608.63;5061781;28;20029;-30
2022/09/12 02:25:56;;;;;;;10.68;8.55;;;;;;;17.99;100.00;99611.66;5046535;28;20139;-30
2022/09/12 02:28:33;;;;;;;11.30;8.88;;;;;;;17.95;100.00;99613.31;5046129;28;20032;-29
2022/09/12 02:31:27;;;;;;;10.57;8.50;;;;;;;17.89;100.00;99615.22;5046743;28;20489;-31
2022/09/12 02:34:17;;;;;;;11.15;8.27;;;;;;;17.93;100.00;99618.16;5046514;28;20029;-28
2022/09/12 02:37:11;;;;;;;11.60;9.32;;;;;;;17.80;100.00;99606.88;5046084;28;20052;-29
2022/09/12 02:39:38;;;;;;;11.73;9.02;;;;;;;17.82;100.00;99609.31;5046535;28;20405;-31
2022/09/12 02:42:03;;;;;;;10.80;9.30;;;;;;;17.91;100.00;99599.56;5044685;28;20068;-30
2022/09/12 02:44:30;;;;;;;10.27;9.07;;;;;;;18.02;100.00;99603.81;5046094;28;20064;-28
2022/09/12 02:47:05;;;;;;;13.20;9.18;;;;;;;18.22;100.00;99623.66;5045256;28;20408;-30
2022/09/12 02:49:31;;;;;;;12.75;9.30;;;;;;;18.11;100.00;99611.31;5050325;28;20028;-33
2022/09/12 02:51:58;;;;;;;10.43;9.10;;;;;;;18.03;100.00;99616.22;5050099;28;20032;-33
2022/09/12 02:54:25;;;;;;;11.20;8.85;;;;;;;18.12;100.00;99604.81;5049888;28;20025;-32
2022/09/12 02:56:50;;;;;;;10.40;8.10;;;;;;;18.11;99.99;99612.13;5049817;28;20036;-30
2022/09/12 02:59:20;;;;;;;10.93;8.23;;;;;;;17.99;100.00;99615.16;5049940;28;20021;-30
2022/09/12 03:02:04;;;;;;;13.00;8.73;;;;;;;17.90;100.00;99605.22;5048212;28;20052;-30
2022/09/12 03:04:39;;;;;;;11.07;8.60;;;;;;;17.96;100.00;99607.63;5064992;28;20029;-34
2022/09/12 03:07:26;;;;;;;11.73;8.57;;;;;;;17.84;100.00;99599.06;5064500;28;20084;-29
2022/09/12 03:10:24;;;;;;;10.50;7.90;;;;;;;17.77;100.00;99606.63;5048292;28;20025;-30
2022/09/12 03:13:05;;;;;;;10.23;8.00;;;;;;;17.82;100.00;99610.09;5043590;28;20051;-31
2022/09/12 03:15:33;;;;;;;11.00;7.97;;;;;;;18.00;99.55;99615.94;5064598;28;20394;-31
2022/09/12 03:18:22;;;;;;;10.63;8.15;;;;;;;17.92;98.78;99614.66;5049481;28;20033;-29
2022/09/12 03:21:12;;;;;;;10.85;7.63;;;;;;;17.86;98.66;99611.19;5048072;28;20032;-29
2022/09/12 03:23:41;;;;;;;9.70;7.93;;;;;;;17.96;98.57;99625.69;5049456;28;20037;-32
2022/09/12 03:26:20;;;;;;;11.95;9.10;;;;;;;17.74;99.85;99623.38;5064487;28;20378;-30
2022/09/12 03:28:47;;;;;;;16.65;10.48;;;;;;;17.72;99.71;99633.63;5049090;28;20032;-30
2022/09/12 03:31:14;;;;;;;14.02;9.85;;;;;;;17.66;98.70;99616.66;5049187;28;20451;-30
2022/09/12 03:33:40;;;;;;;16.35;8.77;;;;;;;17.59;98.90;99592.69;5047997;28;20025;-29
2022/09/12 03:36:06;;;;;;;9.57;8.02;;;;;;;17.50;99.04;99599.72;5049174;28;20047;-31
2022/09/12 03:38:31;;;;;;;11.75;8.63;;;;;;;17.50;99.45;99607.03;5047631;28;20032;-29
2022/09/12 03:40:56;;;;;;;9.48;7.28;;;;;;;17.42;99.27;99600.31;5047266;28;20446;-29
2022/09/12 03:43:22;;;;;;;10.82;7.13;;;;;;;17.41;98.13;99599.50;5048975;28;20025;-34
2022/09/12 03:45:51;;;;;;;11.55;7.53;;;;;;;17.27;98.44;99588.50;5048991;28;20048;-29
2022/09/12 03:48:17;;;;;;;8.90;6.22;;;;;;;17.18;98.21;99583.94;5049216;28;20381;-30
2022/09/12 03:50:42;;;;;;;8.98;7.00;;;;;;;17.16;98.88;99618.44;5048607;28;20082;-31
2022/09/12 03:53:07;;;;;;;10.85;7.55;;;;;;;17.10;98.75;99600.66;5048945;28;20029;-29
2022/09/12 03:55:33;;;;;;;10.88;7.45;;;;;;;17.00;99.84;99614.97;5048692;28;20036;-29
2022/09/12 03:57:58;;;;;;;9.50;7.05;;;;;;;17.00;99.03;99612.25;5048588;28;20044;-30
2022/09/12 04:00:24;;;;;;;9.63;7.28;;;;;;;16.85;98.98;99592.34;5047931;28;20028;-30
2022/09/12 04:02:54;;;;;;;10.60;8.05;;;;;;;17.05;98.34;99612.28;5048334;28;20255;-29
2022/09/12 04:05:19;;;;;;;9.52;7.53;;;;;;;16.97;98.73;99608.22;5050666;28;20059;-29
2022/09/12 04:07:45;;;;;;;10.98;7.72;;;;;;;16.99;97.52;99597.19;5050328;28;20508;-29
2022/09/12 04:10:10;;;;;;;10.75;7.60;;;;;;;16.89;97.77;99608.78;5050496;28;20119;-29
2022/09/12 04:12:36;;;;;;;9.00;7.25;;;;;;;16.74;98.96;99590.75;5068083;28;20108;-28
2022/09/12 04:15:01;;;;;;;13.38;8.98;;;;;;;16.80;99.03;99595.03;5068259;28;20028;-30
2022/09/12 04:17:27;;;;;;;11.15;8.10;;;;;;;17.00;98.97;99618.47;5068582;28;20115;-29
2022/09/12 04:19:52;;;;;;;13.05;8.40;;;;;;;16.92;98.46;99621.72;5068731;28;20032;-30
2022/09/12 04:22:18;;;;;;;11.80;7.68;;;;;;;16.93;98.12;99609.06;5068173;28;20766;-35
2022/09/12 04:24:43;;;;;;;9.43;6.97;;;;;;;16.87;97.72;99622.50;5068075;28;20803;-31
2022/09/12 04:27:08;;;;;;;10.88;6.90;;;;;;;16.88;98.14;99634.13;5068227;28;20097;-28
2022/09/12 04:29:34;;;;;;;11.82;8.18;;;;;;;16.84;98.31;99616.88;5067960;28;20051;-31
2022/09/12 04:32:00;;;;;;;10.57;8.25;;;;;;;16.90;97.89;99625.75;5050285;28;20539;-30
2022/09/12 04:34:25;;;;;;;13.32;9.23;;;;;;;17.08;97.45;99644.06;5067780;28;20115;-31
2022/09/12 04:36:51;;;;;;;13.30;9.50;;;;;;;17.00;97.41;99618.47;5068110;28;20472;-29
2022/09/12 04:39:16;;;;;;;14.73;9.23;;;;;;;17.27;95.63;99655.88;5067837;28;20036;-28
2022/09/12 04:41:42;;;;;;;10.27;7.95;;;;;;;17.13;96.46;99644.03;5068200;28;20397;-29
2022/09/12 04:44:11;;;;;;;14.20;7.80;;;;;;;17.21;96.82;99643.47;5067640;28;20814;-33
2022/09/12 04:46:39;;;;;;;10.32;7.35;;;;;;;17.31;94.93;99666.91;5066159;28;20108;-29
2022/09/12 04:49:05;;;;;;;10.25;6.60;;;;;;;17.24;94.89;99642.94;5049919;28;20037;-33
2022/09/12 04:51:33;;;;;;;7.63;6.50;;;;;;;17.24;95.54;99669.91;5049492;28;20028;-30
2022/09/12 04:54:03;;;;;;;9.63;6.55;;;;;;;17.21;95.07;99662.34;5049516;28;20484;-29
2022/09/12 04:56:29;;;;;;;12.43;6.70;;;;;;;17.29;95.70;99661.00;5049193;28;20033;-29
2022/09/12 04:58:59;;;;;;;8.88;6.38;;;;;;;17.29;95.07;99652.09;5049772;28;20028;-29
2022/09/12 05:01:26;;;;;;;7.85;6.45;;;;;;;17.36;95.28;99666.09;5049511;28;20024;-36
2022/09/12 05:03:53;;;;;;;8.20;6.00;;;;;;;17.47;95.04;99668.50;5049442;28;20112;-29
2022/09/12 05:06:39;;;;;;;7.18;5.93;;;;;;;17.61;94.35;99662.50;5049048;28;20040;-28
2022/09/12 05:09:07;;;;;;;8.43;5.97;;;;;;;17.59;94.21;99670.88;5048987;28;20621;-30
2022/09/12 05:11:35;;;;;;;7.53;5.65;;;;;;;17.51;94.17;99668.75;5065645;28;20139;-30
2022/09/12 05:14:01;;;;;;;8.00;5.85;;;;;;;17.44;94.13;99668.22;5049432;28;20032;-32
2022/09/12 05:16:27;;;;;;;7.50;5.88;;;;;;;17.49;94.99;99673.63;5048928;28;20031;-28
2022/09/12 05:18:54;;;;;;;7.22;5.40;;;;;;;17.55;94.06;99679.78;5049376;28;20040;-33
2022/09/12 05:21:22;;;;;;;8.57;5.70;;;;;;;17.45;94.38;99664.47;5067295;28;20025;-31
2022/09/12 05:23:50;;;;;;;7.47;5.80;;;;;;;17.74;93.36;99672.72;5067417;28;20082;-29
2022/09/12 05:26:17;;;;;;;8.85;5.80;;;;;;;17.82;92.48;99680.22;5048907;28;20082;-37
2022/09/12 05:28:43;;;;;;;7.47;5.53;;;;;;;17.88;93.02;99678.34;5065541;28;20036;-32
2022/09/12 05:31:16;;;;;;;7.03;5.65;;;;;;;17.82;91.69;99684.81;5067160;28;20032;-30
2022/09/12 05:33:44;;;;;;;7.72;5.43;;;;;;;17.93;90.33;99686.41;5067085;28;20058;-29
2022/09/12 05:36:13;;;;;;;8.43;4.90;;;;;;;17.80;90.87;99670.81;5048675;28;20147;-28
2022/09/12 05:38:39;;;;;;;7.05;4.90;;;;;;;18.07;89.32;99671.22;5048787;28;20029;-29
2022/09/12 05:41:06;;;;;;;6.78;4.57;;;;;;;17.98;89.38;99677.47;5049205;28;20032;-28
2022/09/12 05:43:40;;;;;;;8.57;5.22;;;;;;;18.09;90.26;99678.25;5048939;28;20074;-30
2022/09/12 05:46:12;;;;;;;8.80;4.80;;;;;;;18.24;89.47;99660.06;5048832;28;20032;-31
2022/09/12 05:48:39;;;;;;;8.10;4.25;;;;;;;18.32;88.06;99677.56;5048253;28;20024;-30
2022/09/12 05:51:07;;;;;;;7.20;5.00;;;;;;;18.36;87.88;99657.03;5066546;28;20024;-30
2022/09/12 05:53:33;;;;;;;7.13;4.57;;;;;;;18.52;87.94;99662.31;5066831;28;20055;-28
2022/09/12 05:56:19;;;;;;;6.20;4.22;;;;;;;18.77;87.20;99656.72;5032109;28;20040;-32
2022/09/12 05:58:47;;;;;;;10.57;3.95;;;;;;;18.66;85.96;99657.91;5048563;28;20025;-28
2022/09/12 06:01:15;;;;;;;6.40;4.03;;;;;;;18.67;84.56;99643.28;5048445;28;20029;-30
2022/09/12 06:03:43;;;;;;;5.40;3.60;;;;;;;18.47;84.44;99636.19;5048086;28;20576;-28
2022/09/12 06:06:12;;;;;;;;;;;;;;;18.66;83.93;99663.28;5049095;28;20068;-28
2022/09/12 06:08:39;;;;;;;5.72;3.72;;;;;;;18.88;84.93;99657.47;5048274;28;19918;-29
2022/09/12 06:11:06;;;;;;;5.38;3.45;;;;;;;18.83;83.69;99647.50;5048599;28;20032;-29
2022/09/12 06:13:33;;;;;;;7.38;3.67;;;;;;;18.81;84.35;99651.59;5048124;28;20143;-29
2022/09/12 06:16:09;;;;;;;6.57;3.88;;;;;;;18.97;83.29;99634.13;5066770;28;20048;-28
2022/09/12 06:18:36;;;;;;;6.60;3.53;;;;;;;19.27;84.40;99659.25;5066684;28;20119;-28
2022/09/12 06:21:06;;;;;;;4.82;3.17;;;;;;;19.27;80.44;99654.66;5048461;28;20029;-28
2022/09/12 06:23:32;;;;;;;6.25;3.40;;;;;;;19.14;82.11;99649.91;5069111;28;20059;-31
2022/09/12 06:25:57;;;;;;;6.55;3.22;;;;;;;19.24;82.58;99660.63;5070076;28;20032;-33
2022/09/12 06:28:23;;;;;;;5.38;3.40;;;;;;;19.65;82.58;99648.53;5070398;28;20036;-28
2022/09/12 06:30:49;;;;;;;4.40;3.22;;;;;;;19.54;80.20;99647.88;5052203;28;20547;-30
2022/09/12 06:33:15;;;;;;;6.13;3.08;;;;;;;19.55;81.04;99656.78;5052265;28;20127;-29
2022/09/12 06:35:41;;;;;;;4.15;3.00;;;;;;;19.87;80.56;99661.56;5051944;28;20043;-33
2022/09/12 06:38:06;;;;;;;5.47;3.63;;;;;;;19.79;78.80;99662.22;5070097;28;20033;-29
2022/09/12 06:40:32;;;;;;;4.60;2.75;;;;;;;19.71;78.90;99673.66;5069670;28;20029;-33
2022/09/12 06:42:58;;;;;;;7.05;3.28;;;;;;;19.68;78.53;99664.22;5052127;28;20059;-31
2022/09/12 06:45:24;;;;;;;4.90;2.83;;;;;;;19.59;78.29;99650.50;5069817;28;20031;-31
2022/09/12 06:47:50;;;;;;;4.20;2.70;;;;;;;19.96;79.07;99665.25;5069694;28;20060;-32
2022/09/12 06:50:16;;;;;;;4.53;2.70;;;;;;;20.03;77.51;99675.69;5069861;28;20114;-31
2022/09/12 06:52:43;;;;;;;6.25;2.78;;;;;;;20.01;78.50;99670.56;5069439;28;20039;-28
2022/09/12 06:55:09;;;;;;;3.95;2.60;;;;;;;20.39;76.61;99662.47;5069570;28;20035;-28
2022/09/12 06:57:37;;;;;;;4.30;2.40;;;;;;;20.38;76.68;99660.84;5069823;28;20032;-29
2022/09/12 07:00:04;;;;;;;4.82;2.42;;;;;;;20.61;76.08;99672.69;5069871;28;20028;-31
2022/09/12 07:02:30;;;;;;;5.10;2.83;;;;;;;20.76;74.66;99655.41;5051319;28;20036;-34
2022/09/12 07:04:55;;;;;;;3.53;2.33;;;;;;;20.84;72.83;99668.28;5069445;28;20110;-28
2022/09/12 07:07:21;;;;;;;3.80;2.20;;;;;;;20.74;73.26;99673.88;5069232;28;20056;-28
2022/09/12 07:09:48;;;;;;;5.53;1.90;;;;;;;20.70;73.79;99653.88;5069421;28;20036;-30
2022/09/12 07:12:13;;;;;;;3.63;2.13;;;;;;;20.72;71.90;99676.06;5069828;28;20093;-30
2022/09/12 07:14:39;;;;;;;3.25;1.92;;;;;;;20.96;72.76;99672.41;5069306;28;20032;-32
2022/09/12 07:17:05;;;;;;;4.97;2.08;;;;;;;21.10;72.60;99675.97;5069602;28;20025;-28
2022/09/12 07:19:31;;;;;;;3.28;1.90;;;;;;;21.35;70.42;99679.31;5069308;28;20131;-32
2022/09/12 07:21:56;;;;;;;2.30;1.80;;;;;;;21.37;67.97;99679.81;5069408;28;20024;-30
2022/09/12 07:24:21;;;;;;;3.13;2.00;;;;;;;21.31;69.72;99679.13;5068819;28;20021;-28
2022/09/12 07:26:47;;;;;;;4.40;2.30;;;;;;;21.39;69.16;99683.03;5069293;28;20416;-28
2022/09/12 07:29:15;;;;;;;4.88;2.00;;;;;;;21.16;69.49;99679.38;5068400;28;20024;-34
2022/09/12 07:31:41;;;;;;;3.22;2.00;;;;;;;21.24;69.56;99660.50;5051364;28;20416;-31
2022/09/12 07:34:07;;;;;;;2.40;2.05;;;;;;;21.62;68.75;99687.50;5051090;28;20028;-31
2022/09/12 07:36:33;;;;;;;3.78;1.92;;;;;;;21.68;66.93;99674.66;5068737;28;20415;-28
2022/09/12 07:38:59;;;;;;;3.45;2.20;;;;;;;21.80;67.13;99677.66;5043568;28;20033;-29
2022/09/12 07:41:27;;;;;;;3.60;2.10;;;;;;;21.95;68.56;99660.22;5030833;28;20040;-29
2022/09/12 07:43:57;;;;;;;3.58;2.22;;;;;;;22.04;66.65;99671.97;5047511;28;20024;-29
2022/09/12 07:46:24;;;;;;;4.07;1.90;;;;;;;22.23;67.45;99671.00;5048417;28;20031;-29
2022/09/12 08:33:31;;;;;;;2.08;1.40;;;;;;;23.64;55.01;99682.50;5041295;28;20106;-32
2022/09/12 08:36:20;;;;;;;2.65;1.40;;;;;;;23.49;55.03;99669.31;5026263;28;20041;-32
2022/09/12 08:38:48;;;;;;;1.65;1.30;;;;;;;23.65;56.36;99660.38;5027350;28;20506;-32
2022/09/12 08:41:33;;;;;;;1.80;1.30;;;;;;;23.35;53.67;99674.84;5026065;28;20064;-29
2022/09/12 08:44:47;;;;;;;2.95;1.30;;;;;;;23.53;53.22;99662.13;5027460;28;20033;-37
2022/09/12 08:47:15;;;;;;;3.70;1.55;;;;;;;23.80;52.82;99669.25;5023273;28;20501;-30
2022/09/12 08:49:50;;;;;;;1.92;1.40;;;;;;;23.77;52.30;99661.72;5024939;28;20412;-30
2022/09/12 08:52:28;;;;;;;3.58;1.40;;;;;;;24.03;52.04;99667.25;5027159;28;20033;-31
2022/09/12 08:54:55;;;;;;;2.50;1.38;;;;;;;24.08;52.74;99663.56;5026460;28;20060;-29
2022/09/12 08:57:23;;;;;;;1.60;1.30;;;;;;;24.01;52.04;99664.81;5025187;28;20040;-29
2022/09/12 08:59:49;;;;;;;2.47;1.60;;;;;;;24.13;52.57;99663.38;5026572;28;20033;-33
2022/09/12 09:02:48;;;;;;;4.25;2.22;;;;;;;24.36;51.55;99681.19;5024787;28;20041;-30
2022/09/12 09:05:13;;;;;;;2.08;1.40;;;;;;;24.30;50.72;99660.69;5026932;28;20041;-31
2022/09/12 09:08:26;;;;;;;3.50;1.38;;;;;;;24.52;52.30;99661.66;5026760;28;20405;-34
2022/09/12 09:11:12;;;;;;;2.35;1.48;;;;;;;24.41;50.45;99667.38;4984110;28;20035;-29
2022/09/12 09:16:41;;;;;;;3.55;1.40;;;;;;;24.58;48.97;99658.44;5026116;28;20047;-28
2022/09/12 09:19:46;;;;;;;3.30;1.30;;;;;;;24.96;49.19;99654.19;5025019;28;20041;-29
2022/09/12 09:22:46;;;;;;;2.25;1.27;;;;;;;24.63;47.28;99652.03;4968127;28;20637;-32
2022/09/12 09:25:22;;;;;;;1.30;1.08;;;;;;;24.73;48.25;99651.69;5024722;28;20103;-29
2022/09/12 09:27:56;;;;;;;2.58;1.30;;;;;;;24.94;48.64;99653.72;5026620;28;20026;-29
2022/09/12 09:30:21;;;;;;;2.13;1.27;;;;;;;24.94;48.30;99640.88;5021835;28;20041;-32
2022/09/12 09:32:54;;;;;;;1.27;1.10;;;;;;;25.01;46.78;99651.31;5024471;28;20029;-29
2022/09/12 09:35:23;;;;;;;1.52;0.98;;;;;;;25.08;45.72;99651.59;5056432;28;20060;-29
2022/09/12 09:37:59;;;;;;;1.92;1.15;;;;;;;25.34;47.63;99643.34;5066111;28;20043;-30
2022/09/12 09:40:46;;;;;;;2.45;1.25;;;;;;;25.16;46.23;99642.59;5066238;28;20033;-31
2022/09/12 09:43:24;;;;;;;2.63;1.60;;;;;;;25.06;44.30;99626.56;5061260;28;20038;-34
2022/09/12 09:45:51;;;;;;;1.52;1.40;;;;;;;25.05;45.34;99638.63;5065329;28;20036;-31
2022/09/12 09:48:25;;;;;;;1.40;1.10;;;;;;;25.36;48.10;99607.53;5028198;28;20127;-30
2022/09/12 09:50:51;;;;;;;1.52;1.20;;;;;;;25.28;48.32;99627.50;5044679;28;20425;-29
2022/09/12 09:53:27;;;;;;;1.65;1.27;;;;;;;25.12;44.53;99614.34;5027923;28;20025;-33
2022/09/12 09:55:55;;;;;;;1.52;1.17;;;;;;;24.82;45.89;99606.09;5044774;28;20033;-30
2022/09/12 09:58:34;;;;;;;2.80;1.15;;;;;;;24.84;46.70;99622.94;5049532;28;20024;-29
2022/09/12 10:01:14;;;;;;;2.15;1.20;;;;;;;25.22;44.42;99616.75;5070105;28;20044;-29
2022/09/12 10:03:50;;;;;;;1.55;1.38;;;;;;;25.58;46.38;99623.63;5068884;28;20513;-29
2022/09/12 10:06:19;;;;;;;2.22;1.20;;;;;;;25.56;45.91;99622.34;5051626;28;20102;-35
2022/09/12 10:08:46;;;;;;;1.55;1.15;;;;;;;25.32;44.99;99607.41;5069993;28;20044;-29
2022/09/12 10:11:15;;;;;;;2.67;1.88;;;;;;;25.38;45.76;99621.66;5051582;28;20029;-33
2022/09/12 10:13:50;;;;;;;3.50;1.40;;;;;;;25.83;45.55;99615.59;5052150;28;20055;-28
2022/09/12 10:16:20;;;;;;;3.20;1.35;;;;;;;25.67;44.12;99618.91;5069938;28;20039;-29
2022/09/12 10:18:46;;;;;;;8.32;4.40;;;;;;;26.23;46.77;99613.22;5063338;28;20024;-31
2022/09/12 10:21:17;;;;;;;4.60;1.40;;;;;;;26.40;42.43;99623.22;5069729;28;20463;-29
2022/09/12 10:23:44;;;;;;;1.42;1.17;;;;;;;26.08;44.40;99615.78;5051567;28;20093;-30
2022/09/12 10:26:13;;;;;;;1.77;1.48;;;;;;;26.16;41.67;99620.38;5051637;28;20024;-36
2022/09/12 10:28:42;;;;;;;3.08;1.25;;;;;;;26.66;41.74;99608.50;5051428;28;20499;-31
2022/09/12 10:31:12;;;;;;;5.00;3.08;;;;;;;26.97;41.75;99623.59;5051464;28;20033;-29
2022/09/12 10:33:46;;;;;;;1.20;1.08;;;;;;;27.15;39.15;99600.34;5051546;28;20081;-36
2022/09/12 10:36:13;;;;;;;2.88;1.70;;;;;;;27.33;39.28;99598.22;5069487;28;20136;-29
2022/09/12 10:38:48;;;;;;;2.37;1.30;;;;;;;27.33;38.99;99613.88;5051449;28;20612;-31
2022/09/12 10:41:14;;;;;;;3.03;1.55;;;;;;;27.55;38.22;99609.88;5069629;28;20039;-29
2022/09/12 10:43:41;;;;;;;1.85;1.08;;;;;;;27.71;38.66;99618.19;5069395;28;20024;-29
2022/09/12 10:46:18;;;;;;;3.40;1.77;;;;;;;28.00;39.99;99615.16;5069533;28;20515;-31
2022/09/12 10:48:48;;;;;;;3.83;2.42;;;;;;;27.57;38.73;99619.31;5069129;28;20103;-29
2022/09/12 10:51:23;;;;;;;1.90;1.33;;;;;;;27.78;38.43;99612.91;5051359;28;20411;-32
2022/09/12 10:53:50;;;;;;;1.38;1.27;;;;;;;27.69;37.52;99612.25;5069288;28;20024;-30
2022/09/12 10:56:19;;;;;;;3.22;1.15;;;;;;;27.36;37.42;99594.00;5050676;28;20085;-31
2022/09/12 10:59:06;;;;;;;1.75;1.10;;;;;;;27.49;36.23;99606.56;5050854;28;20500;-29
2022/09/12 11:01:32;;;;;;;;;;;;;;;27.28;35.59;99611.34;5069541;28;20754;-31
2022/09/12 11:04:06;;;;;;;5.10;3.22;;;;;;;27.56;36.34;99612.25;5069202;28;19917;-31
2022/09/12 11:06:45;;;;;;;3.03;2.05;;;;;;;26.69;38.37;99616.03;5050560;28;20124;-30
2022/09/12 11:09:17;;;;;;;5.13;3.20;;;;;;;26.27;39.44;99618.81;5050459;28;20063;-32
2022/09/12 11:11:48;;;;;;;2.28;1.42;;;;;;;26.00;39.13;99609.25;5068796;28;20029;-28
2022/09/12 11:14:27;;;;;;;1.67;1.00;;;;;;;25.75;40.43;99600.88;5068957;28;20039;-29
2022/09/12 11:17:01;;;;;;;2.22;0.98;;;;;;;25.80;39.78;99606.13;5050779;28;20557;-28
2022/09/12 11:19:51;;;;;;;1.45;1.02;;;;;;;25.80;40.92;99597.94;5069016;28;20119;-35
2022/09/12 11:22:35;;;;;;;9.13;3.25;;;;;;;25.87;41.98;99594.69;5051090;28;20036;-28
2022/09/12 11:25:21;;;;;;;3.10;1.75;;;;;;;25.81;40.55;99579.63;5068855;28;20527;-28
2022/09/12 11:28:13;;;;;;;6.18;2.72;;;;;;;25.95;41.79;99591.13;5050557;28;20033;-32
2022/09/12 11:30:58;;;;;;;7.80;4.35;;;;;;;25.99;39.49;99575.66;5067712;28;20105;-28
2022/09/12 11:33:24;;;;;;;1.85;1.25;;;;;;;25.74;40.43;99582.88;5050179;28;20031;-29
2022/09/12 11:35:51;;;;;;;4.13;1.73;;;;;;;25.78;41.00;99583.81;5050275;28;20024;-29
2022/09/12 11:38:41;;;;;;;2.08;1.30;;;;;;;25.89;39.40;99586.13;5050374;28;20032;-28
2022/09/12 11:41:14;;;;;;;2.78;1.30;;;;;;;26.70;40.11;99576.59;5050458;28;20127;-29
2022/09/12 11:43:47;;;;;;;2.05;1.08;;;;;;;27.03;38.38;99562.03;5050214;28;20033;-32
2022/09/12 11:46:36;;;;;;;2.33;1.30;;;;;;;27.42;38.79;99578.94;5068452;28;20035;-29
2022/09/12 11:49:14;;;;;;;1.92;1.10;;;;;;;28.12;34.46;99578.69;5049646;28;20412;-29
2022/09/12 11:52:00;;;;;;;4.55;1.70;;;;;;;28.34;33.09;99582.84;5050132;28;20035;-31
2022/09/12 11:54:43;;;;;;;1.80;1.08;;;;;;;28.59;33.82;99563.53;5049224;28;20132;-29
2022/09/12 11:57:24;;;;;;;1.52;1.02;;;;;;;28.60;34.97;99581.56;5049801;28;20036;-28
2022/09/12 12:00:07;;;;;;;0.88;0.88;;;;;;;28.54;35.12;99572.78;5067100;28;20802;-28
2022/09/12 12:03:01;;;;;;;1.95;1.00;;;;;;;28.95;34.67;99569.91;5067272;28;20068;-31
2022/09/12 12:05:46;;;;;;;2.85;0.70;;;;;;;28.22;32.92;99572.72;5053209;28;20060;-32
2022/09/12 12:08:13;;;;;;;1.38;0.50;;;;;;;27.97;33.95;99566.53;5049804;28;20036;-29
2022/09/12 12:10:41;;;;;;;2.25;1.02;;;;;;;28.27;32.52;99568.13;5067608;28;20028;-30
2022/09/12 12:13:20;;;;;;;0.60;0.55;;;;;;;28.05;33.62;99568.34;5049696;28;20021;-28
2022/09/12 12:15:49;;;;;;;1.73;0.60;;;;;;;27.88;34.18;99568.63;5067692;28;20028;-29
2022/09/12 12:18:19;;;;;;;0.98;0.70;;;;;;;27.64;34.94;99553.81;5049345;28;20036;-29
2022/09/12 12:20:45;;;;;;;0.82;0.50;;;;;;;27.18;35.20;99553.16;5048499;28;20400;-31
2022/09/12 12:23:33;;;;;;;1.40;0.60;;;;;;;27.25;34.95;99560.81;5049575;28;20127;-34
2022/09/12 12:26:00;;;;;;;0.82;0.60;;;;;;;27.25;33.65;99534.25;5049724;28;20039;-28
2022/09/12 12:28:41;;;;;;;;;;;;;;;27.34;34.05;99561.50;5067559;28;20630;-30
2022/09/12 12:31:08;;;;;;;1.85;0.60;;;;;;;27.37;35.23;99555.34;5067482;28;19904;-31
2022/09/12 12:33:37;;;;;;;1.25;0.70;;;;;;;27.72;32.95;99560.28;5049127;28;20024;-31
2022/09/12 12:36:06;;;;;;;1.33;0.50;;;;;;;27.64;32.88;99548.34;5067302;28;20081;-30
2022/09/12 12:38:37;;;;;;;2.47;0.60;;;;;;;27.93;33.69;99553.88;5048949;28;20035;-29
2022/09/12 12:41:18;;;;;;;1.00;0.77;;;;;;;27.43;33.50;99558.63;5048810;28;20028;-36